Mount Vernon, Virginia
Current Conditions -  °F | °C
As of 8:58 PM on Wednesday 22 Oct 2014 (Local Time) from KDAA Reporting Station
Overcast Overcast  
Wind Chill: 13°   Ceiling: 3900
Heat Index: 13°   Visibility: 10mi
Dew Point:   Wind: 17mph
Humidity: 67%   Direction: 310°NW
Pressure: 29.95"   Gusts: 30mph
Location:  38.71°N, 77.08°W
Report Text: KDAA 230058Z AUTO 31015G26KT 10SM OVC039 13/07 A2995 RMK AO2 PK WND 33026/51 SLPNO T01330072
Loading
Personal Weather Stations






























Interactive Weather Map
Tropical Storm Tracking
New forecast layout! Learn more

10-Day Weather Forecast

Advertisements
Track Severe Weather on mobile